Fort Pierce, Florida
Current Conditions -  °F | °C
As of 6:53 AM on Tuesday 27 Jan 2015 (Local Time) from KFPR Reporting Station
Clear Clear  
Wind Chill: 38°   Ceiling: Unl
Heat Index: 42°   Visibility: 10mi
Dew Point: 39°   Wind: 7mph
Humidity: 89%   Direction: 280°W
Pressure: 30.02"   Gusts: NA
Location:  27.45°N, 80.33°W
Report Text: KFPR 271153Z AUTO 28006KT 10SM CLR 06/04 A3002 RMK AO2 SLP165 70008 T00560039 10089 20056 53019
Loading
Personal Weather Stations






























Interactive Weather Map New forecast layout! Learn more

10-Day Weather Forecast

Advertisements
Track Severe Weather on mobile